Portada
METAR-TAF:

METAR-TAF

Aeropuertos :

Reikiavik, Islandia

Aeropuerto de Reikiavik

latitud: 64-08N, longitud: 021-54W, altitud: 54 m

Observación

El informe se hizo hace 14 minutos, a las 02:00 UTC
Viento 9 kt del sur-suroeste
Temperatura 6°C
Humedad 87%
Presión 1022 hPa
Visibilidad 10 km o más
Nubes dispersas a una altura de 1000 ft
Cielo cubierto a una altura de 4200 ft

METAR: BIRK 260200Z 21009KT 9999 SCT010 OVC042 06/04 Q1022

Hora: 02:14 (02:14 UTC)

Pronóstico

El informe se hizo hace 3 horas y 21 minutos, a las 22:53 UTC
Pronóstico válido del 26 a las 00 UTC al 26 a las 24 UTC
Viento 10 kt del sur-suroeste
Visibilidad 10 km o más
Cielo nuboso a una altura de 1500 ft
Cielo cubierto a una altura de 3000 ft
Temporalmente
del 26 a las 00 UTC al 26 a las 10 UTC
Visibilidad: 5000 m
Cielo cubierto a una altura de 1000 ft
llovizna, neblina

TAF: BIRK 252253Z 2600/2624 21010KT 9999 BKN015 OVC030 TX09/2615Z TN05/2606Z TEMPO 2600/2610 5000 DZ BR OVC010

Observaciones y pronósticos meteorológicos de más de 4000 aeropuertos (mensajes METAR y TAF).

Los puntos amarillos y rojos representan las estaciones disponibles.

Ponga el ratón en el punto deseado para ver el nombre de la estación.

Haga clic para ver las observaciones y los pronósticos meteorológicos.

Para cambiar el mapa : haga clic en los botones verdes con una cruz de color negro para hacer un zoom, en el botón verde con un guión para alejar o en las flechas verdes para mapas adyacentes.


METAR-TAF: